Time;durP1;ratioP1;P1;durP2;ratioP2;P2;SDS_P1;SDS_P2;PMS_P1;PMS_P2;Temp;Humidity;BMP_temperature;BMP_pressure;BME280_temperature;BME280_humidity;BME280_pressure;Samples;Min_cycle;Max_cycle;Signal;HPM_P1;HPM_P2
2023/10/16 00:01:09;;;;;;;;;;;;;;;22.03;39.09;100222.30;103160;1288;74409;-82
2023/10/16 00:03:34;;;;;;;;;;;;;;;22.03;39.13;100223.55;103062;1288;61554;-82
2023/10/16 00:06:01;;;;;;;;;;;;;;;22.03;39.22;100228.05;103203;1288;61406;-83
2023/10/16 00:08:27;;;;;;;;;;;;;;;22.03;39.25;100231.29;103051;1293;61335;-81
2023/10/16 00:11:03;;;;;;;;;;;;;;;22.03;39.22;100235.96;103169;1288;75431;-82
2023/10/16 00:13:30;;;;;;;;;;;;;;;22.02;39.25;100242.07;103209;1288;62560;-81
2023/10/16 00:15:56;;;;;;;;;;;;;;;22.02;39.25;100248.38;103163;1288;61344;-83
2023/10/16 00:18:24;;;;;;;;;;;;;;;22.02;39.22;100242.09;103202;1288;62661;-81
2023/10/16 00:20:51;;;;;;;;;;;;;;;22.02;39.33;100246.39;103039;1288;74327;-83
2023/10/16 00:23:17;;;;;;;;;;;;;;;22.02;39.27;100250.72;103176;1288;61388;-82
2023/10/16 00:25:44;;;;;;;;;;;;;;;22.02;39.38;100253.95;103007;1288;61318;-84
2023/10/16 00:28:10;;;;;;;;;;;;;;;22.02;39.33;100259.33;103156;1288;72693;-82
2023/10/16 00:30:40;;;;;;;;;;;;;;;22.02;39.31;100258.08;103210;1292;61348;-82
2023/10/16 00:33:11;;;;;;;;;;;;;;;22.01;39.26;100265.27;103066;1292;61388;-82
2023/10/16 00:35:37;;;;;;;;;;;;;;;22.01;39.35;100271.92;103010;1288;61455;-85
2023/10/16 00:38:04;;;;;;;;;;;;;;;22.02;39.27;100273.32;103040;1288;72708;-83
2023/10/16 00:40:33;;;;;;;;;;;;;;;22.01;39.33;100269.43;102819;1290;61504;-82
2023/10/16 00:43:06;;;;;;;;;;;;;;;22.01;39.44;100269.25;102993;1289;61365;-82
2023/10/16 00:45:38;;;;;;;;;;;;;;;22.00;39.51;100267.33;103185;1288;61319;-83
2023/10/16 00:48:06;;;;;;;;;;;;;;;22.00;39.60;100273.05;103178;1288;72705;-83
2023/10/16 00:50:32;;;;;;;;;;;;;;;22.00;39.48;100284.16;103265;1287;74212;-83
2023/10/16 00:52:58;;;;;;;;;;;;;;;22.00;39.43;100284.90;103197;1289;61255;-81
2023/10/16 00:55:24;;;;;;;;;;;;;;;22.00;39.47;100276.88;103238;1287;61398;-82
2023/10/16 00:57:49;;;;;;;;;;;;;;;22.00;39.49;100270.59;103060;1288;61395;-81
2023/10/16 01:00:16;;;;;;;;;;;;;;;22.00;39.52;100275.77;102989;1288;62418;-82
2023/10/16 01:02:42;;;;;;;;;;;;;;;21.99;39.48;100276.02;103009;1288;61325;-83
2023/10/16 01:05:08;;;;;;;;;;;;;;;22.00;39.71;100281.73;103043;1288;61487;-83
2023/10/16 01:07:36;;;;;;;;;;;;;;;21.99;39.54;100284.78;102973;1289;61392;-82
2023/10/16 01:10:10;;;;;;;;;;;;;;;22.00;39.58;100289.64;103185;1289;62250;-82
2023/10/16 01:12:36;;;;;;;;;;;;;;;21.99;39.59;100292.70;103101;1288;61305;-81
2023/10/16 01:15:04;;;;;;;;;;;;;;;21.99;39.65;100298.65;103041;1288;61908;-82
2023/10/16 01:17:29;;;;;;;;;;;;;;;21.99;39.62;100303.83;103038;1288;73525;-82
2023/10/16 01:19:56;;;;;;;;;;;;;;;21.98;39.60;100309.44;103186;1292;62064;-82
2023/10/16 01:22:22;;;;;;;;;;;;;;;21.99;39.64;100312.09;103037;1288;61357;-83
2023/10/16 01:24:48;;;;;;;;;;;;;;;21.98;39.58;100301.90;103193;1291;61318;-82
2023/10/16 01:27:31;;;;;;;;;;;;;;;21.99;39.65;100290.95;103140;1288;61998;-82
2023/10/16 01:29:57;;;;;;;;;;;;;;;21.98;39.59;100287.95;103321;1288;75314;-82
2023/10/16 01:32:23;;;;;;;;;;;;;;;21.99;39.67;100300.63;103181;1288;61302;-82
2023/10/16 01:34:50;;;;;;;;;;;;;;;21.98;39.67;100321.61;103070;1288;61467;-82
2023/10/16 01:37:18;;;;;;;;;;;;;;;21.99;39.69;100333.95;103031;1288;61332;-82
2023/10/16 01:39:49;;;;;;;;;;;;;;;21.98;39.64;100332.75;103132;1287;75603;-83
2023/10/16 01:42:18;;;;;;;;;;;;;;;21.98;39.73;100334.56;103132;1288;61418;-84
2023/10/16 01:44:44;;;;;;;;;;;;;;;21.98;39.73;100329.02;103028;1288;61338;-84
2023/10/16 01:47:16;;;;;;;;;;;;;;;21.98;39.73;100314.48;103026;1288;61512;-81
2023/10/16 01:49:42;;;;;;;;;;;;;;;21.98;39.73;100328.48;103006;1288;74215;-81
2023/10/16 01:52:11;;;;;;;;;;;;;;;21.97;39.76;100336.59;103070;1288;61412;-82
2023/10/16 01:54:40;;;;;;;;;;;;;;;21.97;39.70;100343.02;103109;1288;61333;-82
2023/10/16 01:57:12;;;;;;;;;;;;;;;21.97;39.76;100351.09;103050;1288;73724;-84
2023/10/16 01:59:43;;;;;;;;;;;;;;;21.97;39.75;100349.13;103052;1290;74338;-82
2023/10/16 02:02:09;;;;;;;;;;;;;;;21.97;39.74;100361.52;103050;1288;61359;-84
2023/10/16 02:04:38;;;;;;;;;;;;;;;21.97;39.89;100380.86;103034;1288;61448;-83
2023/10/16 02:07:04;;;;;;;;;;;;;;;21.97;39.81;100388.23;103181;1288;72922;-83
2023/10/16 02:09:31;;;;;;;;;;;;;;;21.97;39.93;100373.90;103061;1293;61396;-82
2023/10/16 02:11:59;;;;;;;;;;;;;;;21.97;39.80;100359.19;103172;1288;61814;-83
2023/10/16 02:14:29;;;;;;;;;;;;;;;21.96;39.83;100361.73;103073;1288;61378;-81
2023/10/16 02:16:56;;;;;;;;;;;;;;;21.96;39.90;100373.05;103177;1293;61330;-83
2023/10/16 02:19:21;;;;;;;;;;;;;;;21.97;39.93;100383.20;103084;1288;61505;-82
2023/10/16 02:21:50;;;;;;;;;;;;;;;21.96;39.84;100383.98;102973;1292;324914;-82
2023/10/16 02:24:16;;;;;;;;;;;;;;;21.96;39.99;100381.62;103047;1288;61543;-83
2023/10/16 02:26:55;;;;;;;;;;;;;;;21.96;40.00;100399.90;103251;1288;61319;-81
2023/10/16 02:29:24;;;;;;;;;;;;;;;21.96;39.87;100405.30;103036;1288;74201;-82
2023/10/16 02:31:52;;;;;;;;;;;;;;;21.96;39.96;100405.10;103018;1293;61400;-82
2023/10/16 02:34:22;;;;;;;;;;;;;;;21.96;39.98;100404.23;103176;1288;61263;-84
2023/10/16 02:36:49;;;;;;;;;;;;;;;21.96;39.93;100406.61;103140;1288;72497;-82
2023/10/16 02:39:34;;;;;;;;;;;;;;;21.96;40.04;100412.31;103211;1287;74200;-82
2023/10/16 02:42:00;;;;;;;;;;;;;;;21.96;39.89;100420.58;103037;1293;61395;-81
2023/10/16 02:44:26;;;;;;;;;;;;;;;21.96;39.97;100413.95;102768;1288;61396;-85
2023/10/16 02:46:51;;;;;;;;;;;;;;;21.96;39.87;100420.89;103053;1293;61586;-82
2023/10/16 02:49:16;;;;;;;;;;;;;;;21.95;40.01;100426.68;103070;1288;62527;-83
2023/10/16 02:51:42;;;;;;;;;;;;;;;21.95;40.06;100437.23;102814;1288;63095;-83
2023/10/16 02:54:31;;;;;;;;;;;;;;;21.95;40.00;100449.98;103023;1291;61437;-83
2023/10/16 02:56:59;;;;;;;;;;;;;;;21.95;39.95;100449.42;102669;1294;63162;-81
2023/10/16 02:59:26;;;;;;;;;;;;;;;21.96;40.02;100452.99;102681;1296;72573;-82
2023/10/16 03:01:54;;;;;;;;;;;;;;;21.95;39.98;100448.73;102635;1296;74555;-83
2023/10/16 03:04:23;;;;;;;;;;;;;;;21.95;39.97;100445.15;102706;1296;61395;-81
2023/10/16 03:06:52;;;;;;;;;;;;;;;21.94;39.99;100449.48;102574;1299;61406;-82
2023/10/16 03:09:28;;;;;;;;;;;;;;;21.95;40.00;100450.73;102597;1294;72259;-82
2023/10/16 03:12:13;;;;;;;;;;;;;;;21.95;39.99;100452.87;102669;1292;74750;-83
2023/10/16 03:14:48;;;;;;;;;;;;;;;21.94;39.95;100466.36;102568;1293;61601;-83
2023/10/16 03:17:32;;;;;;;;;;;;;;;21.95;40.09;100479.04;102609;1294;62094;-81
2023/10/16 03:19:57;;;;;;;;;;;;;;;21.94;40.02;100496.96;102635;1293;72700;-81
2023/10/16 03:22:23;;;;;;;;;;;;;;;21.95;40.10;100504.49;102645;1293;62275;-82
2023/10/16 03:24:51;;;;;;;;;;;;;;;21.95;40.16;100509.30;102682;1294;61477;-81
2023/10/16 03:27:29;;;;;;;;;;;;;;;21.94;40.22;100519.02;102627;1294;61421;-83
2023/10/16 03:29:55;;;;;;;;;;;;;;;21.94;40.04;100511.30;102651;1296;72406;-83
2023/10/16 03:32:21;;;;;;;;;;;;;;;21.94;40.11;100501.29;102637;1294;61695;-82
2023/10/16 03:34:47;;;;;;;;;;;;;;;21.93;40.11;100508.49;102856;1290;61498;-82
2023/10/16 03:37:14;;;;;;;;;;;;;;;21.93;40.10;100524.45;103201;1288;62240;-81
2023/10/16 03:39:41;;;;;;;;;;;;;;;21.93;40.19;100526.45;103220;1288;62645;-83
2023/10/16 03:42:09;;;;;;;;;;;;;;;21.93;40.19;100538.65;103035;1288;61414;-84
2023/10/16 03:44:37;;;;;;;;;;;;;;;21.92;40.18;100540.51;103007;1288;61299;-82
2023/10/16 03:47:05;;;;;;;;;;;;;;;21.90;40.07;100540.84;103192;1288;62379;-83
2023/10/16 03:49:35;;;;;;;;;;;;;;;21.87;40.14;100537.33;103079;1290;72314;-82
2023/10/16 03:52:02;;;;;;;;;;;;;;;21.85;40.23;100539.65;103170;1288;74472;-82
2023/10/16 03:54:31;;;;;;;;;;;;;;;21.83;40.17;100554.10;103285;1288;61404;-83
2023/10/16 03:56:59;;;;;;;;;;;;;;;21.81;40.01;100561.64;103125;1288;61279;-81
2023/10/16 03:59:25;;;;;;;;;;;;;;;21.79;39.98;100569.86;103137;1288;72578;-83
2023/10/16 04:01:51;;;;;;;;;;;;;;;21.76;40.06;100574.88;103188;1288;61280;-83
2023/10/16 04:04:17;;;;;;;;;;;;;;;21.74;40.06;100589.58;103095;1293;61383;-82
2023/10/16 04:06:43;;;;;;;;;;;;;;;21.72;39.95;100600.50;103267;1288;61494;-81
2023/10/16 04:09:09;;;;;;;;;;;;;;;21.70;39.98;100612.44;103055;1292;61284;-80
2023/10/16 04:11:37;;;;;;;;;;;;;;;21.69;39.94;100614.15;103053;1288;61430;-81
2023/10/16 04:14:12;;;;;;;;;;;;;;;21.67;39.92;100611.08;103201;1288;61309;-81
2023/10/16 04:21:40;;;;;;;;;;;;;;;21.57;39.79;100623.64;103187;1288;74489;-82
2023/10/16 04:24:30;;;;;;;;;;;;;;;21.53;39.68;100637.16;103514;1288;62054;-82
2023/10/16 04:27:29;;;;;;;;;;;;;;;21.49;39.66;100660.02;103099;1288;61502;-81
2023/10/16 04:29:46;;;;;;;;;;;;;;;21.44;39.68;100691.94;103707;1288;71546;-82
2023/10/16 04:35:03;;;;;;;;;;;;;;;21.39;39.71;100711.25;103526;1286;61385;-80
2023/10/16 04:37:36;;;;;;;;;;;;;;;21.39;39.59;100707.87;103543;1288;61273;-81
2023/10/16 04:42:50;;;;;;;;;;;;;;;21.38;39.65;100752.16;103490;1288;75380;-81
2023/10/16 04:45:24;;;;;;;;;;;;;;;21.31;39.47;100748.02;103561;1288;61374;-82
2023/10/16 05:06:48;;;;;;;;;;;;;;;;;;;;;
2023/10/16 05:14:22;;;;;;;;;;;;;;;19.67;41.02;100812.13;102770;1303;75042;-79
2023/10/16 05:16:53;;;;;;;;;;;;;;;19.73;41.11;100817.94;102743;1304;61344;-81
2023/10/16 05:22:03;;;;;;;;;;;;;;;19.85;40.96;100844.16;102768;1304;61593;-80
2023/10/16 06:14:10;;;;;;;;;;;;;;;20.62;40.17;100949.02;105386;1288;61968;-81
2023/10/16 06:16:53;;;;;;;;;;;;;;;20.70;40.19;100960.70;105108;1287;72661;-81
2023/10/16 06:19:18;;;;;;;;;;;;;;;20.75;40.12;100968.02;105099;1288;74715;-81
2023/10/16 06:21:47;;;;;;;;;;;;;;;20.82;40.11;100983.16;105057;1288;59899;-81
2023/10/16 06:24:32;;;;;;;;;;;;;;;20.88;40.06;100990.42;105210;1288;61302;-80
2023/10/16 06:27:08;;;;;;;;;;;;;;;20.92;40.11;100998.52;105134;1288;71648;-81
2023/10/16 06:29:34;;;;;;;;;;;;;;;20.97;39.91;101002.91;105056;1292;73523;-81
2023/10/16 06:32:21;;;;;;;;;;;;;;;20.99;40.07;101009.70;105103;1288;59576;-81
2023/10/16 06:34:48;;;;;;;;;;;;;;;21.01;39.78;101021.64;105925;1286;59704;-81
2023/10/16 06:37:17;;;;;;;;;;;;;;;21.00;39.66;101026.67;105979;1287;59889;-82
2023/10/16 06:39:44;;;;;;;;;;;;;;;20.82;39.72;101030.56;106048;1286;75404;-82
2023/10/16 06:42:14;;;;;;;;;;;;;;;20.69;39.84;101037.09;105966;1288;60889;-81
2023/10/16 06:44:42;;;;;;;;;;;;;;;20.69;39.82;101038.35;105940;1286;60427;-82
2023/10/16 06:47:12;;;;;;;;;;;;;;;20.71;39.87;101035.70;106018;1288;72696;-81
2023/10/16 06:49:38;;;;;;;;;;;;;;;20.75;39.94;101038.68;105913;1287;74883;-82
2023/10/16 06:52:04;;;;;;;;;;;;;;;20.79;39.70;101046.89;105853;1288;59431;-81
2023/10/16 06:54:31;;;;;;;;;;;;;;;20.70;39.77;101053.66;105944;1288;59726;-82
2023/10/16 06:57:04;;;;;;;;;;;;;;;20.61;39.67;101059.61;105927;1287;72514;-82
2023/10/16 06:59:30;;;;;;;;;;;;;;;20.56;39.84;101071.73;105962;1287;75583;-80
2023/10/16 07:01:56;;;;;;;;;;;;;;;20.54;39.80;101071.70;105992;1287;59763;-82
2023/10/16 07:04:21;;;;;;;;;;;;;;;20.57;39.86;101075.02;105922;1286;59775;-82
2023/10/16 07:06:48;;;;;;;;;;;;;;;20.61;39.78;101081.77;105933;1292;59167;-81
2023/10/16 07:09:16;;;;;;;;;;;;;;;20.65;39.71;101089.77;106087;1287;58956;-82
2023/10/16 07:11:42;;;;;;;;;;;;;;;20.69;39.66;101103.48;105962;1286;60153;-81
2023/10/16 07:14:12;;;;;;;;;;;;;;;20.72;39.71;101112.92;106083;1288;59428;-80
2023/10/16 07:16:38;;;;;;;;;;;;;;;20.78;39.70;101120.62;105982;1288;73617;-82
2023/10/16 07:19:07;;;;;;;;;;;;;;;20.85;39.52;101132.67;105787;1288;59417;-81
2023/10/16 07:21:32;;;;;;;;;;;;;;;20.92;39.66;101140.43;106057;1288;59871;-81
2023/10/16 07:23:58;;;;;;;;;;;;;;;20.98;39.68;101136.87;106185;1287;59633;-81
2023/10/16 07:26:26;;;;;;;;;;;;;;;21.03;39.70;101137.60;105989;1288;59558;-81
2023/10/16 07:28:51;;;;;;;;;;;;;;;21.07;39.64;101144.96;106071;1286;59314;-81
2023/10/16 07:31:17;;;;;;;;;;;;;;;21.13;39.57;101154.67;106079;1286;59531;-81
2023/10/16 07:33:43;;;;;;;;;;;;;;;21.16;39.51;101159.26;106062;1288;59185;-81
2023/10/16 07:36:11;;;;;;;;;;;;;;;21.19;39.59;101160.50;106094;1288;60029;-80
2023/10/16 07:38:40;;;;;;;;;;;;;;;21.22;39.70;101164.56;106094;1286;59830;-81
2023/10/16 07:41:09;;;;;;;;;;;;;;;21.26;39.77;101166.14;105969;1288;59935;-81
2023/10/16 07:43:36;;;;;;;;;;;;;;;21.30;39.69;101174.16;106113;1288;60119;-80
2023/10/16 07:48:37;;;;;;;;;;;;;;;21.34;39.66;101172.60;105945;1291;74233;-81
2023/10/16 07:51:06;;;;;;;;;;;;;;;21.34;39.60;101168.69;106019;1288;60025;-81
2023/10/16 07:53:34;;;;;;;;;;;;;;;21.30;39.74;101162.69;105718;1288;59200;-80
2023/10/16 07:56:02;;;;;;;;;;;;;;;21.21;39.48;101161.06;105902;1286;73112;-81
2023/10/16 07:58:33;;;;;;;;;;;;;;;20.93;39.35;101167.21;105923;1286;74510;-81
2023/10/16 08:03:48;;;;;;;;;;;;;;;20.59;39.64;101184.52;105634;1287;60349;-81
2023/10/16 08:06:17;;;;;;;;;;;;;;;20.60;39.88;101190.92;105957;1288;74494;-81
2023/10/16 08:08:48;;;;;;;;;;;;;;;20.65;39.96;101191.35;106128;1287;74543;-81
2023/10/16 08:11:18;;;;;;;;;;;;;;;20.71;39.91;101191.34;106095;1292;60675;-81
2023/10/16 08:13:48;;;;;;;;;;;;;;;20.78;39.91;101186.94;106031;1288;60326;-81
2023/10/16 08:16:17;;;;;;;;;;;;;;;20.87;39.86;101190.16;105981;1288;72544;-81
2023/10/16 08:18:47;;;;;;;;;;;;;;;20.93;40.02;101188.70;106200;1288;74539;-81
2023/10/16 08:21:25;;;;;;;;;;;;;;;20.99;39.97;101199.92;106122;1286;60281;-81
2023/10/16 08:23:56;;;;;;;;;;;;;;;21.04;40.08;101206.60;105984;1286;59795;-82
2023/10/16 08:26:28;;;;;;;;;;;;;;;21.08;39.93;101214.22;106028;1286;72329;-82
2023/10/16 08:28:54;;;;;;;;;;;;;;;21.12;39.92;101213.98;105917;1287;74365;-81
2023/10/16 08:31:23;;;;;;;;;;;;;;;21.15;39.97;101220.94;105855;1288;61726;-81
2023/10/16 08:33:49;;;;;;;;;;;;;;;21.18;39.96;101225.75;106023;1288;59942;-81
2023/10/16 08:36:18;;;;;;;;;;;;;;;21.20;39.88;101227.58;105937;1286;59300;-81
2023/10/16 08:38:52;;;;;;;;;;;;;;;21.24;39.92;101231.97;106123;1288;75059;-82
2023/10/16 08:41:29;;;;;;;;;;;;;;;21.27;40.03;101236.43;105976;1288;60184;-82
2023/10/16 08:44:03;;;;;;;;;;;;;;;21.29;40.01;101243.45;106066;1286;60092;-81
2023/10/16 08:46:44;;;;;;;;;;;;;;;21.31;40.07;101248.89;106046;1288;72649;-81
2023/10/16 08:49:10;;;;;;;;;;;;;;;21.33;40.16;101251.80;106040;1288;75626;-82
2023/10/16 08:51:36;;;;;;;;;;;;;;;21.34;40.19;101258.89;105953;1287;59612;-80
2023/10/16 08:54:03;;;;;;;;;;;;;;;21.30;40.28;101259.16;105957;1288;59552;-82
2023/10/16 08:56:29;;;;;;;;;;;;;;;21.25;40.31;101259.27;106017;1288;58885;-82
2023/10/16 08:58:55;;;;;;;;;;;;;;;21.21;40.27;101264.77;105865;1288;59191;-83
2023/10/16 09:01:23;;;;;;;;;;;;;;;21.14;40.54;101268.44;105856;1288;59125;-81
2023/10/16 09:03:54;;;;;;;;;;;;;;;21.11;40.76;101271.10;105817;1292;60096;-81
2023/10/16 09:06:23;;;;;;;;;;;;;;;21.11;41.10;101276.46;105728;1288;73548;-82
2023/10/16 09:08:54;;;;;;;;;;;;;;;21.10;41.10;101284.59;105805;1289;75450;-85
2023/10/16 09:11:19;;;;;;;;;;;;;;;20.97;40.98;101285.22;105808;1288;59595;-82
2023/10/16 09:13:51;;;;;;;;;;;;;;;20.82;40.87;101288.12;106054;1288;59466;-81
2023/10/16 09:16:23;;;;;;;;;;;;;;;20.74;40.93;101289.67;105889;1292;72578;-82
2023/10/16 09:18:48;;;;;;;;;;;;;;;20.72;40.94;101287.86;105835;1290;74732;-82
2023/10/16 09:21:13;;;;;;;;;;;;;;;20.72;40.88;101286.60;105897;1288;59592;-82
2023/10/16 09:23:39;;;;;;;;;;;;;;;20.72;40.91;101284.45;105900;1291;59386;-82
2023/10/16 09:26:06;;;;;;;;;;;;;;;20.68;40.78;101287.39;105981;1291;59031;-82
2023/10/16 09:28:33;;;;;;;;;;;;;;;20.66;40.75;101285.00;105963;1288;59765;-82
2023/10/16 09:31:02;;;;;;;;;;;;;;;20.69;40.84;101283.77;105938;1291;58960;-82
2023/10/16 09:33:28;;;;;;;;;;;;;;;20.73;40.88;101286.73;106010;1287;60333;-81
2023/10/16 09:36:00;;;;;;;;;;;;;;;20.76;40.82;101284.20;106140;1291;72400;-81
2023/10/16 09:38:32;;;;;;;;;;;;;;;20.77;40.78;101289.88;105953;1288;75609;-81
2023/10/16 09:46:52;;;;;;;;;;;;;;;20.89;40.73;101289.48;106117;1286;72360;-81
2023/10/16 09:49:21;;;;;;;;;;;;;;;20.91;40.82;101286.30;106094;1286;74728;-81
2023/10/16 09:51:47;;;;;;;;;;;;;;;20.88;40.70;101288.84;106317;1286;59793;-81
2023/10/16 09:54:13;;;;;;;;;;;;;;;20.87;40.72;101281.56;106261;1286;59846;-82
2023/10/16 09:56:40;;;;;;;;;;;;;;;20.82;40.67;101282.76;106196;1286;59643;-81
2023/10/16 09:59:08;;;;;;;;;;;;;;;20.75;40.78;101282.28;106115;1288;59254;-82
2023/10/16 10:01:43;;;;;;;;;;;;;;;20.74;40.91;101282.56;106026;1286;60288;-81
2023/10/16 10:04:11;;;;;;;;;;;;;;;20.71;40.86;101286.48;106035;1286;59964;-82
2023/10/16 10:06:39;;;;;;;;;;;;;;;20.55;40.74;101285.88;105890;1291;72310;-81
2023/10/16 10:11:39;;;;;;;;;;;;;;;20.18;40.86;101284.64;105974;1286;59901;-81
2023/10/16 10:14:26;;;;;;;;;;;;;;;20.10;40.95;101297.27;106004;1288;62179;-82
2023/10/16 10:16:57;;;;;;;;;;;;;;;20.12;41.13;101301.10;106100;1288;73850;-82
2023/10/16 10:19:54;;;;;;;;;;;;;;;20.18;41.27;101306.45;105558;1286;74524;-82
2023/10/16 10:22:33;;;;;;;;;;;;;;;20.28;41.19;101295.17;104468;1288;61247;-81
2023/10/16 10:25:22;;;;;;;;;;;;;;;20.34;41.17;101294.98;104890;1288;60539;-81
2023/10/16 10:27:48;;;;;;;;;;;;;;;20.41;41.27;101299.72;104840;1287;72372;-81
2023/10/16 10:30:17;;;;;;;;;;;;;;;20.48;41.29;101299.86;104700;1289;60104;-82
2023/10/16 10:32:43;;;;;;;;;;;;;;;20.52;41.10;101295.48;105017;1286;61481;-81
2023/10/16 10:35:43;;;;;;;;;;;;;;;20.57;41.21;101298.77;104733;1286;59654;-81
2023/10/16 10:38:20;;;;;;;;;;;;;;;20.59;41.12;101295.26;104269;1294;72388;-81
2023/10/16 10:41:04;;;;;;;;;;;;;;;20.61;41.15;101289.40;104224;1296;74815;-81
2023/10/16 10:43:39;;;;;;;;;;;;;;;20.64;41.18;101293.15;104095;1297;59689;-81
2023/10/16 10:46:07;;;;;;;;;;;;;;;20.65;41.25;101290.23;104178;1295;61390;-81
2023/10/16 10:48:37;;;;;;;;;;;;;;;20.67;41.11;101287.77;105719;1293;73471;-81
2023/10/16 10:51:05;;;;;;;;;;;;;;;20.69;41.08;101286.94;105600;1293;74184;-80
2023/10/16 10:53:33;;;;;;;;;;;;;;;20.72;41.03;101281.23;104693;1293;61273;-83
2023/10/16 10:55:58;;;;;;;;;;;;;;;20.74;40.94;101284.11;104191;1293;61304;-80
2023/10/16 10:58:31;;;;;;;;;;;;;;;20.77;41.14;101282.53;104208;1299;61474;-81
2023/10/16 11:01:05;;;;;;;;;;;;;;;20.79;41.18;101280.28;104476;1294;74463;-81
2023/10/16 11:03:41;;;;;;;;;;;;;;;20.80;41.24;101281.63;104700;1296;61250;-81
2023/10/16 11:06:15;;;;;;;;;;;;;;;20.69;41.04;101283.77;105361;1294;60378;-81
2023/10/16 11:08:41;;;;;;;;;;;;;;;20.56;41.23;101276.32;105396;1294;72415;-80
2023/10/16 11:11:10;;;;;;;;;;;;;;;20.54;41.09;101274.60;105538;1293;61346;-80
2023/10/16 11:13:43;;;;;;;;;;;;;;;20.50;41.05;101275.04;104383;1294;59963;-81
2023/10/16 11:16:09;;;;;;;;;;;;;;;20.48;40.98;101267.35;104967;1290;60333;-81
2023/10/16 11:18:37;;;;;;;;;;;;;;;20.44;40.91;101269.15;105028;1289;61245;-80
2023/10/16 11:21:07;;;;;;;;;;;;;;;20.47;40.87;101263.99;104830;1289;74675;-81
2023/10/16 11:23:32;;;;;;;;;;;;;;;20.49;40.91;101262.02;104943;1293;61167;-80
2023/10/16 11:25:59;;;;;;;;;;;;;;;20.53;40.81;101259.47;104867;1289;61398;-80
2023/10/16 11:28:36;;;;;;;;;;;;;;;20.56;40.66;101260.53;104879;1290;61401;-80
2023/10/16 11:31:01;;;;;;;;;;;;;;;20.55;40.71;101257.60;104442;1292;74235;-80
2023/10/16 11:33:27;;;;;;;;;;;;;;;20.56;40.60;101263.56;104576;1288;61304;-81
2023/10/16 11:36:02;;;;;;;;;;;;;;;20.59;40.68;101259.84;104785;1289;61303;-80
2023/10/16 11:38:28;;;;;;;;;;;;;;;20.56;40.50;101253.73;104527;1288;72585;-80
2023/10/16 11:40:54;;;;;;;;;;;;;;;20.50;40.38;101252.73;104532;1286;61312;-80
2023/10/16 11:43:21;;;;;;;;;;;;;;;20.48;40.52;101246.95;104551;1288;61427;-81
2023/10/16 11:45:53;;;;;;;;;;;;;;;20.50;40.48;101243.59;104553;1288;61255;-80
2023/10/16 11:48:35;;;;;;;;;;;;;;;20.54;40.50;101244.73;104246;1293;71512;-80
2023/10/16 11:51:35;;;;;;;;;;;;;;;20.59;40.60;101243.18;104924;1290;74401;-82
2023/10/16 11:54:00;;;;;;;;;;;;;;;20.62;40.59;101251.23;104932;1288;60497;-81
2023/10/16 11:56:34;;;;;;;;;;;;;;;20.60;40.55;101251.70;104853;1288;61371;-82
2023/10/16 11:59:00;;;;;;;;;;;;;;;20.61;40.57;101254.54;105251;1288;72586;-82
2023/10/16 12:01:28;;;;;;;;;;;;;;;20.63;40.50;101257.28;105429;1292;61424;-81
2023/10/16 12:03:55;;;;;;;;;;;;;;;20.60;40.59;101260.64;105110;1290;60156;-81
2023/10/16 12:06:20;;;;;;;;;;;;;;;20.51;40.51;101258.02;105015;1289;61314;-79
2023/10/16 12:08:45;;;;;;;;;;;;;;;20.43;40.54;101255.23;105246;1290;61308;-81
2023/10/16 12:11:14;;;;;;;;;;;;;;;20.35;40.53;101253.61;105161;1294;61402;-83
2023/10/16 12:13:41;;;;;;;;;;;;;;;20.34;40.48;101251.77;105054;1292;61398;-81
2023/10/16 12:16:07;;;;;;;;;;;;;;;20.36;40.55;101250.69;105133;1289;61272;-81
2023/10/16 12:18:32;;;;;;;;;;;;;;;20.42;40.73;101256.04;105199;1290;59620;-81
2023/10/16 12:21:04;;;;;;;;;;;;;;;20.48;40.84;101251.08;105088;1292;60408;-82
2023/10/16 12:23:32;;;;;;;;;;;;;;;20.53;40.97;101247.85;104963;1288;60605;-82
2023/10/16 12:25:59;;;;;;;;;;;;;;;20.55;40.86;101247.55;105107;1286;61304;-82
2023/10/16 12:28:26;;;;;;;;;;;;;;;20.56;40.78;101241.23;105024;1292;73310;-81
2023/10/16 12:30:52;;;;;;;;;;;;;;;20.57;40.74;101234.73;104943;1292;61295;-80
2023/10/16 12:33:20;;;;;;;;;;;;;;;20.58;40.56;101227.88;104997;1289;61464;-80
2023/10/16 12:35:47;;;;;;;;;;;;;;;20.62;40.65;101229.27;104925;1286;61434;-80
2023/10/16 12:38:13;;;;;;;;;;;;;;;20.66;40.64;101230.44;104977;1291;73590;-80
2023/10/16 12:40:38;;;;;;;;;;;;;;;20.69;40.62;101231.52;105009;1289;61483;-80
2023/10/16 12:43:06;;;;;;;;;;;;;;;20.74;40.53;101232.68;104905;1288;60065;-79
2023/10/16 12:45:32;;;;;;;;;;;;;;;20.78;40.44;101235.43;104623;1292;61310;-80
2023/10/16 12:47:58;;;;;;;;;;;;;;;20.84;40.63;101241.12;104945;1287;61678;-80
2023/10/16 12:50:23;;;;;;;;;;;;;;;20.90;40.43;101239.34;104693;1290;61514;-80
2023/10/16 12:52:52;;;;;;;;;;;;;;;20.95;40.69;101235.26;104636;1292;59582;-80
2023/10/16 12:55:19;;;;;;;;;;;;;;;21.00;40.61;101233.85;104366;1289;61368;-80
2023/10/16 12:57:48;;;;;;;;;;;;;;;21.05;40.64;101238.73;106215;1291;59639;-80
2023/10/16 13:00:16;;;;;;;;;;;;;;;21.09;40.75;101247.63;106116;1289;75427;-82
2023/10/16 13:02:42;;;;;;;;;;;;;;;21.12;40.81;101245.65;105943;1290;59829;-81
2023/10/16 13:05:13;;;;;;;;;;;;;;;21.11;40.73;101244.81;106057;1292;61238;-81
2023/10/16 13:07:41;;;;;;;;;;;;;;;20.95;40.37;101236.31;106116;1288;73708;-81
2023/10/16 13:10:14;;;;;;;;;;;;;;;20.75;40.39;101231.13;106108;1288;73324;-81
2023/10/16 13:12:41;;;;;;;;;;;;;;;20.66;40.36;101234.71;106036;1288;59728;-80
2023/10/16 13:15:08;;;;;;;;;;;;;;;20.63;40.42;101237.62;106179;1290;60685;-80
2023/10/16 13:17:34;;;;;;;;;;;;;;;20.64;40.40;101242.02;106282;1287;72428;-80
2023/10/16 13:19:59;;;;;;;;;;;;;;;20.65;40.42;101241.73;106188;1289;59161;-81
2023/10/16 13:22:25;;;;;;;;;;;;;;;20.68;40.34;101243.56;106193;1286;59845;-81
2023/10/16 13:24:54;;;;;;;;;;;;;;;20.70;40.22;101241.85;106196;1290;59002;-81
2023/10/16 13:27:21;;;;;;;;;;;;;;;20.73;40.23;101241.84;106089;1287;59301;-81
2023/10/16 13:29:47;;;;;;;;;;;;;;;20.75;40.05;101242.96;104463;1287;74340;-80
2023/10/16 13:32:13;;;;;;;;;;;;;;;20.76;40.05;101237.54;104293;1292;61781;-80
2023/10/16 13:34:38;;;;;;;;;;;;;;;20.76;39.97;101234.27;104312;1288;61341;-81
2023/10/16 13:37:10;;;;;;;;;;;;;;;20.77;39.77;101232.96;104336;1288;61305;-82
2023/10/16 13:39:41;;;;;;;;;;;;;;;20.79;39.87;101227.14;104165;1292;73416;-80
2023/10/16 13:42:09;;;;;;;;;;;;;;;20.80;39.78;101229.77;104050;1287;61287;-83
2023/10/16 13:44:36;;;;;;;;;;;;;;;20.81;39.84;101235.25;104104;1287;61705;-81
2023/10/16 13:47:05;;;;;;;;;;;;;;;20.82;39.90;101237.48;104120;1291;62043;-80
2023/10/16 13:49:31;;;;;;;;;;;;;;;20.83;39.69;101238.50;104099;1288;75553;-81
2023/10/16 13:51:56;;;;;;;;;;;;;;;20.84;39.76;101240.45;104430;1288;61378;-81
2023/10/16 13:54:21;;;;;;;;;;;;;;;20.84;39.81;101238.06;104124;1288;61372;-81
2023/10/16 13:56:48;;;;;;;;;;;;;;;20.85;39.66;101236.80;104203;1292;61433;-80
2023/10/16 13:59:14;;;;;;;;;;;;;;;20.84;39.71;101237.58;104192;1292;61394;-80
2023/10/16 14:01:39;;;;;;;;;;;;;;;20.78;39.64;101236.18;104570;1288;60237;-80
2023/10/16 14:04:16;;;;;;;;;;;;;;;20.68;39.45;101239.79;104720;1287;61327;-81
2023/10/16 14:06:52;;;;;;;;;;;;;;;20.48;39.16;101239.77;104709;1292;62511;-82
2023/10/16 14:09:19;;;;;;;;;;;;;;;20.32;39.26;101242.21;104917;1293;61277;-81
2023/10/16 14:11:48;;;;;;;;;;;;;;;20.18;39.09;101238.70;104883;1289;61494;-81
2023/10/16 14:14:24;;;;;;;;;;;;;;;20.14;39.02;101235.38;104447;1291;61297;-81
2023/10/16 14:16:50;;;;;;;;;;;;;;;20.14;39.09;101232.70;104462;1288;61459;-81
2023/10/16 14:19:22;;;;;;;;;;;;;;;20.17;38.98;101230.59;104357;1288;61282;-81